createdAt,value
2018-04-23T00:02:22.788Z,66.90
2018-04-23T00:04:53.160Z,65.50
2018-04-23T00:07:23.513Z,66.00
2018-04-23T00:09:53.877Z,66.10
2018-04-23T00:12:25.011Z,67.20
2018-04-23T00:14:55.357Z,66.50
2018-04-23T00:17:26.492Z,65.90
2018-04-23T00:19:58.617Z,66.00
2018-04-23T00:22:48.107Z,65.60
2018-04-23T00:25:18.457Z,65.60
2018-04-23T00:27:49.572Z,66.00
2018-04-23T00:30:19.942Z,66.00
2018-04-23T00:32:50.287Z,64.90
2018-04-23T00:35:21.664Z,64.50
2018-04-23T00:37:52.044Z,65.60
2018-04-23T00:40:23.160Z,66.70
2018-04-23T00:42:53.523Z,66.60
2018-04-23T00:45:23.901Z,66.60
2018-04-23T00:47:54.263Z,65.60
2018-04-23T00:50:25.384Z,65.80
2018-04-23T00:53:37.868Z,65.70
2018-04-23T00:56:15.617Z,66.10
2018-04-23T00:58:46.767Z,66.80
2018-04-23T01:01:17.897Z,66.80
2018-04-23T01:03:49.259Z,67.10
2018-04-23T01:06:20.395Z,67.80
2018-04-23T01:08:51.043Z,67.80
2018-04-23T01:11:24.153Z,67.00
2018-04-23T01:13:54.524Z,66.90
2018-04-23T01:16:24.885Z,67.60
2018-04-23T01:18:58.044Z,68.10
2018-04-23T01:21:28.420Z,68.10
2018-04-23T01:23:58.781Z,67.60
2018-04-23T01:26:29.139Z,67.80
2018-04-23T01:29:00.275Z,68.10
2018-04-23T01:31:31.387Z,69.00
2018-04-23T01:34:23.927Z,68.20
2018-04-23T01:36:56.339Z,68.20
2018-04-23T01:39:27.702Z,68.00
2018-04-23T01:41:58.836Z,68.30
2018-04-23T01:44:29.976Z,69.00
2018-04-23T01:47:01.084Z,69.30
2018-04-23T01:49:33.508Z,68.90
2018-04-23T01:52:03.854Z,69.30
2018-04-23T01:54:34.216Z,68.60
2018-04-23T01:57:04.606Z,69.10
2018-04-23T01:59:34.946Z,70.00
2018-04-23T02:02:07.342Z,68.40
2018-04-23T02:04:37.704Z,69.10
2018-04-23T02:07:08.055Z,68.10
2018-04-23T02:09:38.396Z,68.70
2018-04-23T02:12:08.781Z,69.00
2018-04-23T02:14:39.890Z,69.70
2018-04-23T02:17:10.250Z,69.70
2018-04-23T02:19:40.631Z,69.60
2018-04-23T02:22:14.041Z,69.00
2018-04-23T02:24:44.380Z,68.80
2018-04-23T02:27:15.035Z,69.30
2018-04-23T02:29:46.155Z,70.60
2018-04-23T02:32:16.498Z,70.50
2018-04-23T02:34:46.885Z,69.90
2018-04-23T02:37:38.657Z,71.00
2018-04-23T02:40:09.745Z,71.00
2018-04-23T02:42:43.157Z,71.00
2018-04-23T02:45:13.514Z,70.50
2018-04-23T02:47:44.670Z,71.80
2018-04-23T02:50:15.750Z,71.00
2018-04-23T02:52:46.115Z,71.00
2018-04-23T02:55:16.492Z,70.70
2018-04-23T02:57:46.838Z,70.60
2018-04-23T03:00:39.414Z,69.80
2018-04-23T03:03:09.774Z,69.70
2018-04-23T03:05:40.895Z,70.50
2018-04-23T03:08:12.044Z,70.50
2018-04-23T03:10:43.175Z,68.40
2018-04-23T03:13:13.520Z,68.30
2018-04-23T03:15:43.882Z,68.80
2018-04-23T03:18:14.231Z,69.00
2018-04-23T03:20:44.809Z,68.40
2018-04-23T03:23:15.940Z,68.70
2018-04-23T03:25:46.293Z,68.70
2018-04-23T03:28:16.647Z,67.60
2018-04-23T03:31:08.444Z,69.10
2018-04-23T03:36:23.770Z,67.60
2018-04-23T03:39:01.293Z,67.60
2018-04-23T03:41:31.655Z,66.20
2018-04-23T03:44:01.996Z,63.40
2018-04-23T03:46:32.338Z,63.10
2018-04-23T03:49:24.906Z,61.50
2018-04-23T03:51:56.005Z,60.20
2018-04-23T03:54:26.355Z,60.20
2018-04-23T03:57:04.047Z,61.10
2018-04-23T03:59:41.573Z,60.20
2018-04-23T04:02:11.954Z,61.50
2018-04-23T04:04:42.303Z,60.60
2018-04-23T04:07:32.035Z,61.20
2018-04-23T04:10:02.395Z,61.20
2018-04-23T04:13:32.783Z,61.30
2018-04-23T04:16:39.725Z,60.70
2018-04-23T04:19:13.156Z,60.60
2018-04-23T04:21:43.498Z,60.90
2018-04-23T04:24:14.611Z,60.60
2018-04-23T04:26:44.994Z,60.60
2018-04-23T04:29:15.368Z,59.80
2018-04-23T04:31:45.727Z,60.80
2018-04-23T04:34:16.089Z,60.60
2018-04-23T04:36:46.455Z,61.80
2018-04-23T04:39:16.793Z,60.70
2018-04-23T04:41:47.932Z,61.50
2018-04-23T04:44:19.037Z,61.80
2018-04-23T04:47:11.573Z,61.40
2018-04-23T04:49:41.907Z,61.40
2018-04-23T04:52:12.264Z,61.20
2018-04-23T04:54:42.638Z,62.10
2018-04-23T04:57:12.976Z,61.40
2018-04-23T04:59:50.938Z,61.20
2018-04-23T05:02:22.055Z,63.20
2018-04-23T05:04:52.394Z,63.20
2018-04-23T05:07:23.539Z,61.50
2018-04-23T05:09:54.648Z,62.60
2018-04-23T05:12:25.013Z,62.50
2018-04-23T05:14:56.143Z,64.10
2018-04-23T05:17:26.499Z,64.00
2018-04-23T05:19:56.839Z,64.00
2018-04-23T05:22:27.166Z,64.50
2018-04-23T05:24:57.535Z,64.90
2018-04-23T05:27:27.897Z,64.30
2018-04-23T05:29:59.101Z,64.90
2018-04-23T05:32:30.149Z,64.90
2018-04-23T05:35:00.500Z,64.90
2018-04-23T05:37:31.634Z,65.90
2018-04-23T05:40:01.991Z,65.80
2018-04-23T05:42:32.325Z,66.50
2018-04-23T05:45:02.719Z,65.80
2018-04-23T05:47:33.021Z,65.70
2018-04-23T05:50:03.370Z,66.50
2018-04-23T05:52:35.533Z,66.20
2018-04-23T05:55:05.920Z,65.90
2018-04-23T05:57:36.237Z,65.80
2018-04-23T06:00:06.601Z,66.70
2018-04-23T06:02:36.916Z,66.70
2018-04-23T06:05:07.285Z,67.50
2018-04-23T06:07:38.399Z,68.70
2018-04-23T06:10:09.767Z,67.80
2018-04-23T06:12:40.878Z,68.50
2018-04-23T06:15:11.262Z,68.40
2018-04-23T06:17:41.630Z,68.30
2018-04-23T06:20:12.016Z,68.10
2018-04-23T06:22:42.398Z,68.70
2018-04-23T06:25:13.528Z,69.30
2018-04-23T06:27:43.887Z,69.30
2018-04-23T06:30:15.014Z,69.50
2018-04-23T06:32:46.141Z,70.20
2018-04-23T06:35:16.504Z,70.10
2018-04-23T06:37:47.609Z,69.50
2018-04-23T06:40:19.923Z,69.50
2018-04-23T06:42:50.225Z,69.40
2018-04-23T06:45:21.581Z,69.10
2018-04-23T06:47:52.657Z,68.70
2018-04-23T06:50:23.028Z,68.70
2018-04-23T06:52:54.434Z,69.30
2018-04-23T06:55:24.787Z,70.80
2018-04-23T06:57:55.356Z,68.00
2018-04-23T07:00:25.726Z,69.80
2018-04-23T07:03:00.122Z,69.40
2018-04-23T07:05:30.474Z,69.70
2018-04-23T07:08:00.867Z,69.80
2018-04-23T07:10:31.218Z,70.50
2018-04-23T07:13:02.308Z,69.30
2018-04-23T07:15:32.696Z,69.30
2018-04-23T07:18:10.374Z,69.70
2018-04-23T07:20:40.717Z,69.50
2018-04-23T07:23:18.381Z,69.70
2018-04-23T07:25:49.514Z,69.60
2018-04-23T07:28:19.858Z,69.60
2018-04-23T07:30:50.171Z,68.10
2018-04-23T07:33:20.548Z,67.20
2018-04-23T07:35:50.902Z,69.30
2018-04-23T07:38:21.246Z,66.90
2018-04-23T07:40:52.403Z,66.20
2018-04-23T07:43:23.730Z,66.20
2018-04-23T07:45:54.281Z,66.50
2018-04-23T07:48:24.644Z,67.60
2018-04-23T07:53:46.624Z,67.50
2018-04-23T07:56:17.047Z,68.30
2018-04-23T07:58:47.336Z,66.40
2018-04-23T08:01:37.865Z,66.80
2018-04-23T08:04:08.214Z,66.80
2018-04-23T08:06:39.344Z,67.80
2018-04-23T08:09:09.703Z,67.60
2018-04-23T08:11:40.055Z,66.90
2018-04-23T08:14:10.420Z,66.50
2018-04-23T08:16:40.786Z,66.80
2018-04-23T08:19:14.335Z,67.40
2018-04-23T08:21:44.721Z,67.00
2018-04-23T08:24:15.324Z,67.30
2018-04-23T08:26:45.665Z,67.90
2018-04-23T08:29:16.029Z,67.70
2018-04-23T08:31:52.548Z,66.90
2018-04-23T08:34:22.887Z,68.60
2018-04-23T08:36:53.239Z,67.50
2018-04-23T08:39:23.604Z,68.80
2018-04-23T08:41:53.967Z,69.80
2018-04-23T08:44:24.333Z,69.10
2018-04-23T08:46:54.684Z,70.00
2018-04-23T08:49:25.951Z,68.00
2018-04-23T08:51:57.066Z,68.60
2018-04-23T08:54:27.415Z,68.60
2018-04-23T08:56:58.555Z,69.70
2018-04-23T08:59:29.674Z,69.50
2018-04-23T09:02:00.040Z,68.90
2018-04-23T09:04:30.411Z,69.30
2018-04-23T09:07:22.198Z,69.50
2018-04-23T09:09:52.595Z,68.30
2018-04-23T09:12:23.965Z,68.00
2018-04-23T09:14:55.099Z,68.20
2018-04-23T09:17:26.243Z,68.10
2018-04-23T09:19:57.376Z,68.70
2018-04-23T09:22:27.742Z,68.00
2018-04-23T09:24:58.136Z,68.80
2018-04-23T09:27:29.260Z,67.30
2018-04-23T09:29:59.608Z,67.30
2018-04-23T09:32:30.761Z,66.80
2018-04-23T09:35:02.895Z,66.20
2018-04-23T09:37:33.204Z,66.20
2018-04-23T09:40:04.621Z,64.80
2018-04-23T09:42:34.966Z,64.40
2018-04-23T09:45:05.320Z,64.90
2018-04-23T09:47:35.694Z,65.90
2018-04-23T09:50:06.876Z,63.80
2018-04-23T09:52:37.160Z,63.80
2018-04-23T09:55:07.486Z,62.50
2018-04-23T09:57:37.830Z,63.20
2018-04-23T10:00:08.199Z,63.20
2018-04-23T10:02:41.329Z,62.70
2018-04-23T10:05:12.445Z,63.80
2018-04-23T10:07:42.768Z,63.80
2018-04-23T10:10:13.132Z,62.80
2018-04-23T10:12:43.446Z,62.10
2018-04-23T10:15:14.522Z,62.20
2018-04-23T10:18:04.257Z,62.90
2018-04-23T10:20:35.381Z,63.00
2018-04-23T10:23:05.734Z,63.00
2018-04-23T10:25:36.888Z,62.00
2018-04-23T10:28:07.266Z,62.00
2018-04-23T10:30:37.627Z,63.00
2018-04-23T10:33:09.566Z,61.50
2018-04-23T10:35:39.930Z,61.50
2018-04-23T10:38:10.290Z,60.20
2018-04-23T10:40:40.665Z,61.40
2018-04-23T10:43:11.791Z,60.50
2018-04-23T10:45:42.144Z,60.50
2018-04-23T10:48:12.510Z,59.40
2018-04-23T10:50:44.899Z,59.50
2018-04-23T10:53:17.311Z,59.10
2018-04-23T10:55:48.473Z,59.30
2018-04-23T10:58:18.816Z,59.30
2018-04-23T11:00:49.169Z,58.20
2018-04-23T11:03:19.551Z,58.90
2018-04-23T11:05:49.927Z,59.40
2018-04-23T11:08:20.284Z,59.50
2018-04-23T11:10:51.436Z,59.50
2018-04-23T11:13:22.589Z,59.00
2018-04-23T11:15:53.037Z,59.00
2018-04-23T11:18:23.349Z,58.80
2018-04-23T11:20:53.688Z,58.00
2018-04-23T11:23:24.030Z,58.40
2018-04-23T11:25:54.396Z,57.60
2018-04-23T11:28:25.508Z,57.70
2018-04-23T11:30:55.878Z,57.70
2018-04-23T11:33:26.270Z,56.70
2018-04-23T11:35:56.642Z,56.60
2018-04-23T11:38:27.257Z,55.80
2018-04-23T11:40:58.365Z,57.00
2018-04-23T11:43:28.670Z,57.00
2018-04-23T11:45:59.033Z,56.00
2018-04-23T11:48:29.433Z,56.50
2018-04-23T11:51:00.786Z,55.00
2018-04-23T11:53:31.147Z,54.40
2018-04-23T11:56:02.280Z,54.90
2018-04-23T11:58:33.382Z,54.90
2018-04-23T12:03:59.088Z,56.00
2018-04-23T12:06:29.444Z,56.00
2018-04-23T12:09:19.190Z,55.20
2018-04-23T12:11:50.303Z,55.30
2018-04-23T12:14:20.665Z,55.20
2018-04-23T12:16:50.993Z,55.30
2018-04-23T12:19:21.331Z,54.40
2018-04-23T12:21:51.698Z,55.70
2018-04-23T12:24:22.085Z,54.90
2018-04-23T12:26:52.440Z,55.00
2018-04-23T12:29:22.786Z,56.20
2018-04-23T12:31:53.108Z,53.90
2018-04-23T12:34:23.472Z,54.60
2018-04-23T12:36:53.842Z,53.30
2018-04-23T12:39:24.271Z,54.80
2018-04-23T12:41:55.324Z,53.70
2018-04-23T12:44:25.669Z,53.60
2018-04-23T12:46:56.033Z,53.30
2018-04-23T12:49:26.388Z,52.80
2018-04-23T12:51:56.756Z,52.50
2018-04-23T12:54:27.887Z,52.70
2018-04-23T12:56:58.232Z,52.70
2018-04-23T12:59:29.679Z,51.80
2018-04-23T13:02:00.311Z,51.70
2018-04-23T13:04:31.427Z,52.60
2018-04-23T13:07:01.790Z,52.60
2018-04-23T13:09:32.172Z,52.40
2018-04-23T13:12:02.538Z,53.60
2018-04-23T13:14:32.848Z,53.60
2018-04-23T13:17:03.991Z,54.00
2018-04-23T13:19:35.098Z,52.90
2018-04-23T13:22:05.462Z,52.80
2018-04-23T13:24:36.606Z,51.50
2018-04-23T13:27:08.759Z,52.40
2018-04-23T13:29:39.096Z,52.30
2018-04-23T13:32:10.192Z,52.60
2018-04-23T13:35:01.687Z,53.90
2018-04-23T13:37:32.064Z,53.90
2018-04-23T13:40:02.424Z,53.40
2018-04-23T13:42:33.586Z,53.30
2018-04-23T13:45:03.917Z,53.20
2018-04-23T13:47:34.255Z,52.80
2018-04-23T13:50:09.763Z,52.50
2018-04-23T13:52:40.860Z,53.20
2018-04-23T13:55:11.983Z,52.40
2018-04-23T13:57:42.353Z,52.40
2018-04-23T14:00:12.698Z,53.30
2018-04-23T14:02:43.808Z,53.20
2018-04-23T14:05:14.173Z,53.20
2018-04-23T14:07:45.293Z,52.60
2018-04-23T14:10:15.657Z,52.50
2018-04-23T14:12:46.020Z,52.50
2018-04-23T14:15:16.365Z,52.70
2018-04-23T14:17:46.712Z,52.20
2018-04-23T14:20:17.839Z,53.00
2018-04-23T14:22:49.164Z,52.90
2018-04-23T14:25:19.508Z,53.10
2018-04-23T14:27:49.895Z,52.50
2018-04-23T14:30:25.343Z,53.30
2018-04-23T14:32:55.697Z,52.60
2018-04-23T14:35:26.084Z,53.80
2018-04-23T14:37:56.390Z,53.20
2018-04-23T14:40:27.518Z,51.70
2018-04-23T14:42:58.669Z,52.70
2018-04-23T14:45:29.021Z,52.00
2018-04-23T14:47:59.579Z,53.50
2018-04-23T14:50:29.968Z,52.60
2018-04-23T14:53:01.083Z,53.70
2018-04-23T14:55:31.425Z,53.60
2018-04-23T14:58:01.790Z,55.50
2018-04-23T15:00:32.159Z,53.70
2018-04-23T15:03:03.272Z,54.10
2018-04-23T15:05:33.651Z,54.00
2018-04-23T15:08:04.000Z,52.20
2018-04-23T15:10:34.365Z,52.70
2018-04-23T15:13:04.748Z,52.10
2018-04-23T15:15:36.412Z,52.50
2018-04-23T15:18:07.456Z,52.60
2018-04-23T15:20:45.151Z,53.30
2018-04-23T15:23:19.604Z,54.30
2018-04-23T15:25:49.987Z,54.40
2018-04-23T15:28:20.305Z,54.20
2018-04-23T15:30:50.667Z,53.00
2018-04-23T15:33:23.089Z,52.00
2018-04-23T15:35:53.461Z,52.10
2018-04-23T15:38:25.845Z,52.70
2018-04-23T15:40:56.204Z,51.50
2018-04-23T15:43:26.566Z,52.40
2018-04-23T15:45:56.901Z,53.70
2018-04-23T15:48:31.373Z,52.20
2018-04-23T15:51:02.482Z,52.20
2018-04-23T15:53:33.846Z,52.20
2018-04-23T15:56:04.211Z,54.30
2018-04-23T15:58:34.571Z,54.30
2018-04-23T16:01:24.045Z,52.50
2018-04-23T16:03:54.435Z,52.40
2018-04-23T16:06:32.081Z,51.50
2018-04-23T16:11:57.318Z,51.50
2018-04-23T16:14:27.619Z,52.60
2018-04-23T16:17:05.173Z,53.40
2018-04-23T16:19:36.303Z,52.20
2018-04-23T16:22:06.639Z,52.10
2018-04-23T16:24:39.904Z,52.50
2018-04-23T16:27:10.945Z,52.20
2018-04-23T16:29:41.289Z,52.10
2018-04-23T16:32:12.397Z,53.00
2018-04-23T16:34:44.802Z,53.00
2018-04-23T16:37:15.159Z,52.80
2018-04-23T16:39:45.516Z,54.00
2018-04-23T16:42:15.847Z,53.10
2018-04-23T16:45:07.392Z,54.30
2018-04-23T16:47:37.753Z,54.90
2018-04-23T16:50:08.108Z,54.80
2018-04-23T16:52:38.472Z,56.50
2018-04-23T16:55:08.834Z,56.70
2018-04-23T16:57:39.199Z,55.00
2018-04-23T17:00:14.953Z,55.10
2018-04-23T17:03:06.675Z,55.20
2018-04-23T17:05:37.038Z,54.60
2018-04-23T17:08:07.396Z,54.60
2018-04-23T17:10:37.737Z,55.50
2018-04-23T17:13:08.107Z,54.70
2018-04-23T17:15:38.442Z,54.60
2018-04-23T17:18:09.573Z,56.70
2018-04-23T17:20:39.931Z,57.00
2018-04-23T17:23:10.294Z,57.00
2018-04-23T17:25:41.417Z,56.80
2018-04-23T17:28:11.792Z,56.70
2018-04-23T17:30:42.152Z,56.50
2018-04-23T17:33:12.525Z,57.00
2018-04-23T17:35:44.953Z,56.90
2018-04-23T17:38:16.072Z,59.10
2018-04-23T17:40:46.441Z,59.10
2018-04-23T17:43:16.810Z,57.70
2018-04-23T17:45:47.177Z,56.70
2018-04-23T17:48:18.249Z,56.40
2018-04-23T17:50:53.709Z,56.40
2018-04-23T17:53:28.159Z,57.30
2018-04-23T17:55:58.495Z,57.10
2018-04-23T17:58:29.638Z,56.50
2018-04-23T18:00:59.984Z,56.40
2018-04-23T18:03:31.051Z,57.50
2018-04-23T18:06:02.402Z,57.50
2018-04-23T18:08:32.757Z,58.40
2018-04-23T18:11:03.155Z,58.90
2018-04-23T18:13:34.257Z,59.10
2018-04-23T18:16:05.368Z,59.30
2018-04-23T18:18:35.729Z,59.30
2018-04-23T18:21:07.181Z,58.60
2018-04-23T18:23:38.292Z,58.60
2018-04-23T18:26:10.689Z,58.60
2018-04-23T18:28:41.793Z,58.60
2018-04-23T18:31:33.545Z,58.60
2018-04-23T18:34:03.913Z,58.10
2018-04-23T18:36:34.272Z,58.80
2018-04-23T18:39:04.623Z,58.70
2018-04-23T18:41:34.997Z,59.70
2018-04-23T18:44:05.297Z,59.40
2018-04-23T18:46:36.423Z,59.80
2018-04-23T18:49:07.823Z,59.80
2018-04-23T18:51:39.205Z,60.20
2018-04-23T18:54:09.563Z,61.10
2018-04-23T18:56:41.720Z,60.80
2018-04-23T18:59:12.066Z,60.80
2018-04-23T19:01:43.183Z,61.10
2018-04-23T19:04:13.548Z,61.10
2018-04-23T19:06:43.906Z,61.60
2018-04-23T19:09:20.361Z,61.40
2018-04-23T19:11:57.881Z,61.10
2018-04-23T19:14:28.240Z,61.70
2018-04-23T19:16:58.601Z,62.00
2018-04-23T19:19:28.945Z,61.90
2018-04-23T19:21:59.345Z,62.30
2018-04-23T19:24:29.671Z,61.90
2018-04-23T19:27:00.033Z,61.50
2018-04-23T19:29:30.431Z,61.00
2018-04-23T19:32:00.795Z,60.20
2018-04-23T19:34:31.138Z,61.50
2018-04-23T19:37:01.495Z,61.10
2018-04-23T19:39:31.850Z,60.90
2018-04-23T19:42:22.638Z,61.90
2018-04-23T19:44:52.980Z,62.70
2018-04-23T19:47:23.339Z,62.50
2018-04-23T19:49:54.756Z,63.60
2018-04-23T19:52:28.140Z,63.80
2018-04-23T19:55:02.634Z,63.80
2018-04-23T19:57:33.001Z,64.50
2018-04-23T20:00:05.399Z,65.00
2018-04-23T20:02:36.776Z,65.40
2018-04-23T20:05:07.149Z,64.50
2018-04-23T20:07:37.514Z,64.00
2018-04-23T20:10:08.906Z,63.80
2018-04-23T20:12:39.252Z,64.00
2018-04-23T20:15:11.659Z,64.30
2018-04-23T20:17:43.021Z,64.30
2018-04-23T20:20:14.150Z,64.30
2018-04-23T20:22:44.463Z,64.30
2018-04-23T20:28:03.220Z,64.90
2018-04-23T20:30:55.003Z,64.70
2018-04-23T20:33:25.472Z,64.50
2018-04-23T20:35:55.718Z,64.30
2018-04-23T20:38:26.106Z,65.00
2018-04-23T20:40:56.449Z,64.50
2018-04-23T20:43:49.006Z,64.50
2018-04-23T20:46:20.426Z,64.50
2018-04-23T20:48:50.690Z,64.90
2018-04-23T20:51:21.082Z,64.50
2018-04-23T20:53:51.447Z,65.00
2018-04-23T20:56:21.795Z,65.10
2018-04-23T20:58:52.172Z,65.20
2018-04-23T21:01:41.618Z,65.80
2018-04-23T21:04:11.989Z,65.80
2018-04-23T21:06:42.335Z,65.90
2018-04-23T21:09:12.674Z,66.30
2018-04-23T21:11:43.810Z,66.30
2018-04-23T21:14:14.159Z,66.30
2018-04-23T21:16:44.517Z,66.20
2018-04-23T21:19:21.022Z,66.50
2018-04-23T21:21:53.401Z,66.40
2018-04-23T21:24:23.742Z,65.30
2018-04-23T21:26:54.130Z,66.30
2018-04-23T21:29:24.488Z,66.40
2018-04-23T21:31:55.604Z,66.50
2018-04-23T21:34:25.968Z,66.50
2018-04-23T21:36:56.314Z,66.60
2018-04-23T21:39:26.678Z,67.10
2018-04-23T21:41:57.010Z,66.70
2018-04-23T21:44:27.371Z,66.20
2018-04-23T21:46:58.477Z,66.50
2018-04-23T21:49:28.862Z,66.40
2018-04-23T21:51:59.224Z,66.90
2018-04-23T21:54:29.589Z,67.30
2018-04-23T21:57:00.747Z,66.70
2018-04-23T21:59:31.113Z,66.60
2018-04-23T22:02:01.472Z,67.30
2018-04-23T22:04:31.866Z,67.30
2018-04-23T22:07:02.207Z,68.00
2018-04-23T22:09:33.531Z,67.80
2018-04-23T22:12:03.862Z,67.80
2018-04-23T22:14:34.228Z,68.10
2018-04-23T22:17:04.590Z,68.00
2018-04-23T22:19:34.965Z,69.60
2018-04-23T22:22:05.313Z,68.90
2018-04-23T22:24:35.666Z,69.00
2018-04-23T22:27:06.036Z,68.60
2018-04-23T22:29:36.389Z,67.00
2018-04-23T22:32:07.793Z,67.70
2018-04-23T22:34:38.082Z,67.60
2018-04-23T22:37:08.448Z,67.50
2018-04-23T22:39:38.808Z,67.50
2018-04-23T22:42:09.952Z,68.70
2018-04-23T22:44:41.064Z,68.50
2018-04-23T22:47:11.475Z,67.70
2018-04-23T22:49:41.782Z,67.90
2018-04-23T22:52:12.126Z,67.50
2018-04-23T22:54:46.559Z,67.40
2018-04-23T22:57:16.941Z,67.20
2018-04-23T22:59:47.294Z,68.30
2018-04-23T23:02:22.775Z,67.60
2018-04-23T23:04:53.114Z,68.40
2018-04-23T23:07:24.246Z,69.20
2018-04-23T23:09:54.635Z,69.10
2018-04-23T23:12:24.974Z,68.50
2018-04-23T23:14:55.343Z,68.20
2018-04-23T23:17:25.714Z,68.00
2018-04-23T23:20:02.197Z,67.60
2018-04-23T23:22:32.578Z,67.80
2018-04-23T23:25:02.939Z,67.80
2018-04-23T23:27:33.318Z,67.90
2018-04-23T23:30:03.698Z,68.10
2018-04-23T23:32:35.079Z,67.90
2018-04-23T23:35:05.453Z,67.40
2018-04-23T23:37:35.812Z,68.70
2018-04-23T23:40:06.118Z,68.10
2018-04-23T23:42:55.591Z,67.90
2018-04-23T23:45:33.257Z,67.90
2018-04-23T23:48:03.637Z,68.00
2018-04-23T23:50:34.000Z,68.30
2018-04-23T23:53:04.330Z,67.80
2018-04-23T23:55:34.723Z,68.30
2018-04-23T23:58:06.089Z,68.20
